RZN865 KBWI-KBED
Flight info
| Callsign | RZN865 |
|---|---|
| Flight time | 1h 2m |
| Altitude | 39000 |
| Route | DUKPN1 BROSS Q419 DPK |
| Aircraft | B772/H-SDE2E3FGHIJ5LORVWXY/LB1D1 |
Departure
| Time | 2026-05-05 17:15 |
|---|---|
| Airport | Baltimore/Washington International Thurgood Marshall Airport (KBWI) |
Arrival
| Time | 2026-05-05 18:17 |
|---|---|
| Airport | Laurence G Hanscom Field (KBED) |
| Time | Latitude | Longitude | Altitude | Speed | Heading |
|---|---|---|---|---|---|
| 2026-05-05 17:00 | 39.18403 | -76.66936 | 165 ft | 0 kts | 234° |
| 2026-05-05 17:08 | 39.18404 | -76.66936 | 165 ft | 0 kts | 234° |
| 2026-05-05 17:08 | 39.18409 | -76.66926 | 165 ft | 0 kts | 234° |
| 2026-05-05 17:09 | 39.18418 | -76.66912 | 165 ft | 2 kts | 216° |
| 2026-05-05 17:09 | 39.18431 | -76.66903 | 165 ft | 2 kts | 194° |
| 2026-05-05 17:09 | 39.18445 | -76.66901 | 165 ft | 2 kts | 175° |
| 2026-05-05 17:09 | 39.18460 | -76.66904 | 165 ft | 2 kts | 155° |
| 2026-05-05 17:10 | 39.18467 | -76.66910 | 165 ft | 0 kts | 143° |
| 2026-05-05 17:10 | 39.18470 | -76.66912 | 165 ft | 0 kts | 143° |
| 2026-05-05 17:11 | 39.18450 | -76.66893 | 165 ft | 7 kts | 144° |
| 2026-05-05 17:11 | 39.18421 | -76.66786 | 164 ft | 19 kts | 69° |
| 2026-05-05 17:12 | 39.18491 | -76.66626 | 161 ft | 20 kts | 72° |
| 2026-05-05 17:12 | 39.18406 | -76.66481 | 158 ft | 23 kts | 144° |
| 2026-05-05 17:12 | 39.18315 | -76.66312 | 154 ft | 24 kts | 131° |
| 2026-05-05 17:12 | 39.18171 | -76.66167 | 149 ft | 28 kts | 146° |
| 2026-05-05 17:13 | 39.18009 | -76.66028 | 143 ft | 31 kts | 147° |
| 2026-05-05 17:13 | 39.17810 | -76.65870 | 139 ft | 34 kts | 149° |
| 2026-05-05 17:13 | 39.17598 | -76.65717 | 136 ft | 32 kts | 152° |
| 2026-05-05 17:13 | 39.17443 | -76.65618 | 135 ft | 24 kts | 122° |
| 2026-05-05 17:14 | 39.17311 | -76.65548 | 135 ft | 22 kts | 213° |
| 2026-05-05 17:14 | 39.17287 | -76.65760 | 141 ft | 42 kts | 275° |
| 2026-05-05 17:14 | 39.17333 | -76.66513 | 156 ft | 124 kts | 273° |
| 2026-05-05 17:14 | 39.17440 | -76.67875 | 560 ft | 168 kts | 274° |
| 2026-05-05 17:15 | 39.17514 | -76.69270 | 1642 ft | 161 kts | 269° |
| 2026-05-05 17:15 | 39.17592 | -76.70933 | 1716 ft | 215 kts | 270° |
| 2026-05-05 17:15 | 39.17629 | -76.72997 | 2359 ft | 240 kts | 259° |
| 2026-05-05 17:15 | 39.16991 | -76.74885 | 3668 ft | 235 kts | 228° |
| 2026-05-05 17:16 | 39.15668 | -76.75978 | 4918 ft | 234 kts | 197° |
| 2026-05-05 17:16 | 39.14077 | -76.75971 | 6012 ft | 242 kts | 166° |
| 2026-05-05 17:16 | 39.12626 | -76.74814 | 6998 ft | 257 kts | 137° |
| 2026-05-05 17:16 | 39.11514 | -76.72990 | 7996 ft | 263 kts | 133° |
| 2026-05-05 17:17 | 39.10331 | -76.71211 | 8978 ft | 265 kts | 136° |
| 2026-05-05 17:17 | 39.09156 | -76.69415 | 9809 ft | 275 kts | 131° |
| 2026-05-05 17:17 | 39.08271 | -76.67055 | 10288 ft | 308 kts | 108° |
| 2026-05-05 17:17 | 39.08093 | -76.64136 | 10396 ft | 353 kts | 89° |
| 2026-05-05 17:18 | 39.08332 | -76.60807 | 10575 ft | 388 kts | 88° |
| 2026-05-05 17:18 | 39.08491 | -76.57328 | 11531 ft | 399 kts | 89° |
| 2026-05-05 17:18 | 39.08658 | -76.53779 | 12802 ft | 401 kts | 89° |
| 2026-05-05 17:18 | 39.08803 | -76.50185 | 13925 ft | 406 kts | 90° |
| 2026-05-05 17:19 | 39.09008 | -76.46564 | 14897 ft | 415 kts | 85° |
| 2026-05-05 17:19 | 39.09743 | -76.42911 | 15815 ft | 426 kts | 73° |
| 2026-05-05 17:19 | 39.10740 | -76.39294 | 16734 ft | 433 kts | 73° |
| 2026-05-05 17:19 | 39.11719 | -76.35619 | 17643 ft | 440 kts | 73° |
| 2026-05-05 17:20 | 39.12729 | -76.31895 | 18534 ft | 446 kts | 74° |
| 2026-05-05 17:20 | 39.13745 | -76.28114 | 19377 ft | 452 kts | 74° |
| 2026-05-05 17:20 | 39.14744 | -76.24294 | 20169 ft | 456 kts | 77° |
| 2026-05-05 17:20 | 39.15420 | -76.20283 | 20918 ft | 458 kts | 86° |
| 2026-05-05 17:21 | 39.15893 | -76.16225 | 21680 ft | 464 kts | 86° |
| 2026-05-05 17:21 | 39.16383 | -76.12087 | 22450 ft | 469 kts | 87° |
| 2026-05-05 17:21 | 39.16855 | -76.07946 | 23195 ft | 474 kts | 87° |
| 2026-05-05 17:22 | 39.17829 | -75.99455 | 24650 ft | 485 kts | 87° |
| 2026-05-05 17:22 | 39.18489 | -75.95183 | 25333 ft | 496 kts | 80° |
| 2026-05-05 17:22 | 39.19598 | -75.90945 | 26002 ft | 505 kts | 73° |
| 2026-05-05 17:22 | 39.21087 | -75.86764 | 26649 ft | 516 kts | 65° |
| 2026-05-05 17:23 | 39.23043 | -75.82861 | 27279 ft | 526 kts | 56° |
| 2026-05-05 17:23 | 39.25430 | -75.79315 | 27868 ft | 535 kts | 47° |
| 2026-05-05 17:23 | 39.28244 | -75.76157 | 28459 ft | 542 kts | 38° |
| 2026-05-05 17:23 | 39.31402 | -75.73483 | 29031 ft | 547 kts | 31° |
| 2026-05-05 17:24 | 39.34592 | -75.70789 | 29531 ft | 552 kts | 37° |
| 2026-05-05 17:24 | 39.37599 | -75.67709 | 30045 ft | 557 kts | 40° |
| 2026-05-05 17:24 | 39.40577 | -75.64537 | 30609 ft | 561 kts | 41° |
| 2026-05-05 17:24 | 39.43562 | -75.61284 | 31155 ft | 566 kts | 42° |
| 2026-05-05 17:25 | 39.46558 | -75.57999 | 31687 ft | 572 kts | 42° |
| 2026-05-05 17:25 | 39.48600 | -75.55753 | 32071 ft | 575 kts | 42° |
| 2026-05-05 17:25 | 39.52673 | -75.51268 | 32871 ft | 580 kts | 43° |
| 2026-05-05 17:25 | 39.55724 | -75.47899 | 33588 ft | 581 kts | 43° |
| 2026-05-05 17:26 | 39.58781 | -75.44513 | 34336 ft | 580 kts | 43° |
| 2026-05-05 17:26 | 39.61850 | -75.41118 | 35170 ft | 577 kts | 43° |
| 2026-05-05 17:26 | 39.64843 | -75.37796 | 35936 ft | 574 kts | 43° |
| 2026-05-05 17:26 | 39.67905 | -75.34396 | 36652 ft | 573 kts | 43° |
| 2026-05-05 17:27 | 39.70910 | -75.31059 | 37251 ft | 572 kts | 44° |
| 2026-05-05 17:27 | 39.73929 | -75.27702 | 37807 ft | 572 kts | 43° |
| 2026-05-05 17:27 | 39.76905 | -75.24380 | 38316 ft | 572 kts | 44° |
| 2026-05-05 17:27 | 39.79776 | -75.20837 | 38784 ft | 570 kts | 51° |
| 2026-05-05 17:28 | 39.82420 | -75.16979 | 38956 ft | 565 kts | 53° |
| 2026-05-05 17:28 | 39.87582 | -75.09338 | 38954 ft | 564 kts | 53° |
| 2026-05-05 17:29 | 39.92714 | -75.01701 | 38955 ft | 561 kts | 53° |
| 2026-05-05 17:29 | 39.97642 | -74.93932 | 38952 ft | 554 kts | 60° |
| 2026-05-05 17:30 | 40.01886 | -74.85686 | 38953 ft | 550 kts | 61° |
| 2026-05-05 17:30 | 40.06116 | -74.77391 | 38954 ft | 550 kts | 61° |
| 2026-05-05 17:31 | 40.10333 | -74.69098 | 38952 ft | 549 kts | 61° |
| 2026-05-05 17:31 | 40.14537 | -74.60790 | 38941 ft | 550 kts | 61° |
| 2026-05-05 17:32 | 40.18787 | -74.52521 | 38939 ft | 552 kts | 57° |
| 2026-05-05 17:32 | 40.24161 | -74.45261 | 38443 ft | 565 kts | 41° |
| 2026-05-05 17:32 | 40.27244 | -74.42027 | 37943 ft | 562 kts | 41° |
| 2026-05-05 17:33 | 40.30215 | -74.38850 | 37449 ft | 560 kts | 41° |
| 2026-05-05 17:33 | 40.33226 | -74.35636 | 36949 ft | 558 kts | 41° |
| 2026-05-05 17:33 | 40.36254 | -74.32392 | 36442 ft | 558 kts | 42° |
| 2026-05-05 17:33 | 40.39226 | -74.29204 | 35925 ft | 559 kts | 42° |
| 2026-05-05 17:34 | 40.42251 | -74.25957 | 35186 ft | 563 kts | 42° |
| 2026-05-05 17:34 | 40.45269 | -74.22708 | 34404 ft | 567 kts | 42° |
| 2026-05-05 17:34 | 40.48306 | -74.19428 | 33637 ft | 569 kts | 43° |
| 2026-05-05 17:34 | 40.51219 | -74.15935 | 32866 ft | 569 kts | 46° |
| 2026-05-05 17:35 | 40.54002 | -74.12264 | 32097 ft | 571 kts | 52° |
| 2026-05-05 17:35 | 40.56440 | -74.08164 | 31322 ft | 567 kts | 60° |
| 2026-05-05 17:35 | 40.58422 | -74.03730 | 30552 ft | 562 kts | 68° |
| 2026-05-05 17:35 | 40.59914 | -73.99086 | 29787 ft | 555 kts | 76° |
| 2026-05-05 17:36 | 40.60918 | -73.94308 | 28950 ft | 523 kts | 84° |
| 2026-05-05 17:36 | 40.61389 | -73.89719 | 28194 ft | 491 kts | 92° |
| 2026-05-05 17:36 | 40.61771 | -73.85264 | 27508 ft | 497 kts | 86° |
| 2026-05-05 17:36 | 40.62570 | -73.80832 | 26799 ft | 504 kts | 80° |
| 2026-05-05 17:37 | 40.63614 | -73.76448 | 26089 ft | 511 kts | 74° |
| 2026-05-05 17:37 | 40.64534 | -73.73575 | 25613 ft | 514 kts | 70° |
| 2026-05-05 17:37 | 40.66466 | -73.67864 | 24639 ft | 508 kts | 70° |
| 2026-05-05 17:37 | 40.67874 | -73.63745 | 23883 ft | 482 kts | 70° |
| 2026-05-05 17:38 | 40.69216 | -73.59804 | 23163 ft | 460 kts | 70° |
| 2026-05-05 17:38 | 40.70502 | -73.56015 | 22493 ft | 455 kts | 70° |
| 2026-05-05 17:38 | 40.71782 | -73.52228 | 21840 ft | 460 kts | 70° |
| 2026-05-05 17:38 | 40.73100 | -73.48340 | 21176 ft | 464 kts | 70° |
| 2026-05-05 17:39 | 40.74423 | -73.44430 | 20514 ft | 468 kts | 69° |
| 2026-05-05 17:39 | 40.75739 | -73.40545 | 19859 ft | 471 kts | 69° |
| 2026-05-05 17:39 | 40.77092 | -73.36578 | 19198 ft | 473 kts | 68° |
| 2026-05-05 17:39 | 40.78586 | -73.32825 | 18953 ft | 458 kts | 62° |
| 2026-05-05 17:40 | 40.80424 | -73.29452 | 18956 ft | 448 kts | 52° |
| 2026-05-05 17:40 | 40.82609 | -73.26614 | 18955 ft | 437 kts | 40° |
| 2026-05-05 17:40 | 40.85112 | -73.24364 | 18973 ft | 445 kts | 33° |
| 2026-05-05 17:40 | 40.87714 | -73.22034 | 18977 ft | 458 kts | 37° |
| 2026-05-05 17:41 | 40.90295 | -73.19588 | 18963 ft | 455 kts | 37° |
| 2026-05-05 17:41 | 40.92833 | -73.17158 | 18966 ft | 453 kts | 37° |
| 2026-05-05 17:41 | 40.95394 | -73.14683 | 18968 ft | 452 kts | 37° |
| 2026-05-05 17:41 | 40.97905 | -73.12251 | 18968 ft | 451 kts | 37° |
| 2026-05-05 17:42 | 41.00418 | -73.09811 | 18965 ft | 451 kts | 37° |
| 2026-05-05 17:42 | 41.02939 | -73.07363 | 18961 ft | 451 kts | 38° |
| 2026-05-05 17:42 | 41.05474 | -73.04896 | 18957 ft | 451 kts | 38° |
| 2026-05-05 17:42 | 41.07984 | -73.02453 | 18953 ft | 451 kts | 38° |
| 2026-05-05 17:43 | 41.10527 | -72.99974 | 18945 ft | 451 kts | 38° |
| 2026-05-05 17:43 | 41.13060 | -72.97504 | 18931 ft | 451 kts | 39° |
| 2026-05-05 17:43 | 41.15559 | -72.95059 | 18931 ft | 450 kts | 39° |
| 2026-05-05 17:43 | 41.18084 | -72.92586 | 18931 ft | 450 kts | 39° |
| 2026-05-05 17:44 | 41.20583 | -72.90138 | 18932 ft | 450 kts | 39° |
| 2026-05-05 17:44 | 41.23111 | -72.87660 | 18932 ft | 450 kts | 39° |
| 2026-05-05 17:44 | 41.25633 | -72.85185 | 18932 ft | 451 kts | 39° |
| 2026-05-05 17:44 | 41.28153 | -72.82712 | 18933 ft | 451 kts | 39° |
| 2026-05-05 17:45 | 41.30634 | -72.80273 | 18932 ft | 451 kts | 39° |
| 2026-05-05 17:45 | 41.33156 | -72.77792 | 18929 ft | 451 kts | 39° |
| 2026-05-05 17:45 | 41.35695 | -72.75292 | 18927 ft | 451 kts | 39° |
| 2026-05-05 17:45 | 41.38193 | -72.72830 | 18924 ft | 451 kts | 39° |
| 2026-05-05 17:46 | 41.40717 | -72.70338 | 18922 ft | 451 kts | 39° |
| 2026-05-05 17:46 | 41.43242 | -72.67845 | 18920 ft | 452 kts | 39° |
| 2026-05-05 17:46 | 41.45732 | -72.65384 | 18921 ft | 452 kts | 39° |
| 2026-05-05 17:46 | 41.48266 | -72.62875 | 18923 ft | 452 kts | 39° |
| 2026-05-05 17:47 | 41.50776 | -72.60390 | 18925 ft | 452 kts | 39° |
| 2026-05-05 17:47 | 41.53307 | -72.57880 | 18927 ft | 452 kts | 39° |
| 2026-05-05 17:47 | 41.55814 | -72.55392 | 18930 ft | 452 kts | 39° |
| 2026-05-05 17:47 | 41.58341 | -72.52879 | 18932 ft | 452 kts | 39° |
| 2026-05-05 17:48 | 41.60846 | -72.50388 | 18934 ft | 452 kts | 39° |
| 2026-05-05 17:48 | 41.63347 | -72.47900 | 18931 ft | 452 kts | 39° |
| 2026-05-05 17:48 | 41.65871 | -72.45383 | 18925 ft | 452 kts | 39° |
| 2026-05-05 17:48 | 41.68407 | -72.42854 | 18920 ft | 452 kts | 39° |
| 2026-05-05 17:49 | 41.70891 | -72.40374 | 18916 ft | 452 kts | 39° |
| 2026-05-05 17:49 | 41.73417 | -72.37849 | 18913 ft | 452 kts | 39° |
| 2026-05-05 17:49 | 41.75938 | -72.35326 | 18913 ft | 453 kts | 39° |
| 2026-05-05 17:49 | 41.78453 | -72.32809 | 18913 ft | 452 kts | 39° |
| 2026-05-05 17:50 | 41.80979 | -72.30276 | 18916 ft | 452 kts | 40° |
| 2026-05-05 17:50 | 41.83471 | -72.27775 | 18921 ft | 453 kts | 40° |
| 2026-05-05 17:50 | 41.85999 | -72.25236 | 18925 ft | 453 kts | 40° |
| 2026-05-05 17:50 | 41.88490 | -72.22731 | 18929 ft | 453 kts | 40° |
| 2026-05-05 17:51 | 41.91024 | -72.20180 | 18930 ft | 453 kts | 39° |
| 2026-05-05 17:51 | 41.93536 | -72.17649 | 18929 ft | 453 kts | 40° |
| 2026-05-05 17:51 | 41.96038 | -72.15127 | 18921 ft | 453 kts | 40° |
| 2026-05-05 17:51 | 41.98524 | -72.12617 | 18789 ft | 448 kts | 40° |
| 2026-05-05 17:52 | 42.00995 | -72.10122 | 18601 ft | 441 kts | 40° |
| 2026-05-05 17:52 | 42.03436 | -72.07652 | 18425 ft | 433 kts | 40° |
| 2026-05-05 17:52 | 42.05820 | -72.05238 | 18255 ft | 426 kts | 40° |
| 2026-05-05 17:52 | 42.08159 | -72.02867 | 18091 ft | 420 kts | 40° |
| 2026-05-05 17:53 | 42.10484 | -72.00507 | 17897 ft | 420 kts | 40° |
| 2026-05-05 17:53 | 42.12814 | -71.98140 | 17609 ft | 419 kts | 40° |
| 2026-05-05 17:53 | 42.15129 | -71.95785 | 17253 ft | 418 kts | 40° |
| 2026-05-05 17:53 | 42.17435 | -71.93439 | 16839 ft | 418 kts | 39° |
| 2026-05-05 17:54 | 42.19744 | -71.91088 | 16371 ft | 419 kts | 39° |
| 2026-05-05 17:54 | 42.22070 | -71.88715 | 15856 ft | 422 kts | 39° |
| 2026-05-05 17:54 | 42.24401 | -71.86337 | 15336 ft | 424 kts | 39° |
| 2026-05-05 17:54 | 42.26755 | -71.83933 | 14813 ft | 426 kts | 39° |
| 2026-05-05 17:55 | 42.29117 | -71.81519 | 14291 ft | 427 kts | 39° |
| 2026-05-05 17:55 | 42.31474 | -71.79107 | 13771 ft | 428 kts | 39° |
| 2026-05-05 17:55 | 42.33853 | -71.76671 | 13248 ft | 429 kts | 39° |
| 2026-05-05 17:55 | 42.36145 | -71.74103 | 12721 ft | 426 kts | 47° |
| 2026-05-05 17:56 | 42.38054 | -71.71117 | 12141 ft | 425 kts | 53° |
| 2026-05-05 17:56 | 42.39950 | -71.68018 | 11371 ft | 432 kts | 53° |
| 2026-05-05 17:56 | 42.41853 | -71.64867 | 10749 ft | 434 kts | 53° |
| 2026-05-05 17:56 | 42.43768 | -71.61693 | 10229 ft | 433 kts | 52° |
| 2026-05-05 17:57 | 42.45633 | -71.58593 | 9776 ft | 430 kts | 52° |
| 2026-05-05 17:57 | 42.47530 | -71.55431 | 9320 ft | 428 kts | 52° |
| 2026-05-05 17:57 | 42.49377 | -71.52351 | 8864 ft | 419 kts | 51° |
| 2026-05-05 17:57 | 42.51147 | -71.49401 | 8395 ft | 386 kts | 51° |
| 2026-05-05 17:58 | 42.52772 | -71.46693 | 7997 ft | 358 kts | 50° |
| 2026-05-05 17:58 | 42.54285 | -71.44166 | 7627 ft | 335 kts | 50° |
| 2026-05-05 17:58 | 42.55713 | -71.41779 | 7275 ft | 315 kts | 50° |
| 2026-05-05 17:58 | 42.57054 | -71.39542 | 6976 ft | 309 kts | 50° |
| 2026-05-05 17:59 | 42.58435 | -71.37240 | 6668 ft | 311 kts | 51° |
| 2026-05-05 17:59 | 42.59786 | -71.34975 | 6356 ft | 313 kts | 52° |
| 2026-05-05 17:59 | 42.61161 | -71.32671 | 6025 ft | 315 kts | 52° |
| 2026-05-05 17:59 | 42.62554 | -71.30338 | 5693 ft | 318 kts | 53° |
| 2026-05-05 18:00 | 42.63932 | -71.28006 | 5371 ft | 318 kts | 56° |
| 2026-05-05 18:00 | 42.64989 | -71.25398 | 5034 ft | 314 kts | 75° |
| 2026-05-05 18:00 | 42.65229 | -71.22565 | 4687 ft | 296 kts | 99° |
| 2026-05-05 18:00 | 42.64844 | -71.19910 | 4214 ft | 278 kts | 112° |
| 2026-05-05 18:01 | 42.64045 | -71.17610 | 3731 ft | 262 kts | 130° |
| 2026-05-05 18:01 | 42.62723 | -71.16071 | 3312 ft | 250 kts | 159° |
| 2026-05-05 18:01 | 42.61071 | -71.15650 | 3032 ft | 243 kts | 187° |
| 2026-05-05 18:01 | 42.59515 | -71.16379 | 2761 ft | 231 kts | 213° |
| 2026-05-05 18:02 | 42.58272 | -71.17632 | 2579 ft | 218 kts | 214° |
| 2026-05-05 18:02 | 42.57069 | -71.18780 | 2319 ft | 206 kts | 214° |
| 2026-05-05 18:02 | 42.55964 | -71.19885 | 2202 ft | 185 kts | 215° |
| 2026-05-05 18:02 | 42.54966 | -71.20890 | 1907 ft | 173 kts | 215° |
| 2026-05-05 18:03 | 42.54063 | -71.21804 | 1761 ft | 153 kts | 214° |
| 2026-05-05 18:03 | 42.53264 | -71.22618 | 1519 ft | 137 kts | 216° |
| 2026-05-05 18:03 | 42.52533 | -71.23365 | 1282 ft | 124 kts | 215° |
| 2026-05-05 18:03 | 42.51878 | -71.24030 | 1101 ft | 116 kts | 216° |
| 2026-05-05 18:04 | 42.51238 | -71.24686 | 996 ft | 112 kts | 214° |
| 2026-05-05 18:04 | 42.50581 | -71.25354 | 891 ft | 121 kts | 215° |
| 2026-05-05 18:04 | 42.49905 | -71.26042 | 759 ft | 122 kts | 214° |
| 2026-05-05 18:04 | 42.49248 | -71.26739 | 477 ft | 118 kts | 216° |
| 2026-05-05 18:05 | 42.48622 | -71.27371 | 349 ft | 107 kts | 214° |
| 2026-05-05 18:05 | 42.48003 | -71.27983 | 301 ft | 118 kts | 216° |
| 2026-05-05 18:05 | 42.47295 | -71.28719 | 157 ft | 130 kts | 214° |
| 2026-05-05 18:05 | 42.46628 | -71.29404 | 143 ft | 112 kts | 221° |
| 2026-05-05 18:06 | 42.46030 | -71.30070 | 618 ft | 122 kts | 215° |
| 2026-05-05 18:06 | 42.45792 | -71.30304 | 811 ft | 131 kts | 214° |
| 2026-05-05 18:06 | 42.44777 | -71.31322 | 2233 ft | 124 kts | 216° |
| 2026-05-05 18:06 | 42.43964 | -71.32144 | 2449 ft | 156 kts | 215° |
| 2026-05-05 18:07 | 42.43129 | -71.32938 | 2447 ft | 148 kts | 214° |
| 2026-05-05 18:07 | 42.42250 | -71.33810 | 1999 ft | 164 kts | 216° |
| 2026-05-05 18:07 | 42.41249 | -71.34705 | 1504 ft | 180 kts | 203° |
| 2026-05-05 18:07 | 42.40069 | -71.34833 | 1391 ft | 175 kts | 162° |
| 2026-05-05 18:08 | 42.39252 | -71.33837 | 1672 ft | 150 kts | 113° |
| 2026-05-05 18:08 | 42.39182 | -71.32368 | 996 ft | 190 kts | 76° |
| 2026-05-05 18:08 | 42.39872 | -71.30728 | 338 ft | 202 kts | 54° |
| 2026-05-05 18:08 | 42.40760 | -71.29675 | 809 ft | 174 kts | 37° |
| 2026-05-05 18:09 | 42.41996 | -71.28487 | 817 ft | 253 kts | 33° |
| 2026-05-05 18:09 | 42.43664 | -71.27394 | 1513 ft | 265 kts | 23° |
| 2026-05-05 18:09 | 42.45189 | -71.26291 | 1924 ft | 235 kts | 37° |
| 2026-05-05 18:09 | 42.46361 | -71.24879 | 1981 ft | 221 kts | 48° |
| 2026-05-05 18:10 | 42.47374 | -71.23356 | 1998 ft | 216 kts | 52° |
| 2026-05-05 18:10 | 42.48319 | -71.21774 | 1998 ft | 215 kts | 54° |
| 2026-05-05 18:10 | 42.49244 | -71.20126 | 2041 ft | 235 kts | 57° |
| 2026-05-05 18:10 | 42.50241 | -71.18286 | 2015 ft | 239 kts | 57° |
| 2026-05-05 18:11 | 42.51206 | -71.16479 | 2027 ft | 233 kts | 57° |
| 2026-05-05 18:11 | 42.52123 | -71.14748 | 2004 ft | 224 kts | 56° |
| 2026-05-05 18:11 | 42.53012 | -71.13042 | 1999 ft | 219 kts | 60° |
| 2026-05-05 18:11 | 42.53581 | -71.11159 | 1965 ft | 220 kts | 88° |
| 2026-05-05 18:12 | 42.53345 | -71.09193 | 1753 ft | 209 kts | 123° |
| 2026-05-05 18:12 | 42.52381 | -71.07896 | 1697 ft | 188 kts | 159° |
| 2026-05-05 18:12 | 42.51162 | -71.07745 | 1690 ft | 172 kts | 198° |
| 2026-05-05 18:12 | 42.50289 | -71.08676 | 1766 ft | 151 kts | 233° |
| 2026-05-05 18:13 | 42.49725 | -71.09804 | 1683 ft | 136 kts | 230° |
| 2026-05-05 18:13 | 42.49175 | -71.10784 | 1680 ft | 135 kts | 229° |
| 2026-05-05 18:13 | 42.48558 | -71.11853 | 1747 ft | 144 kts | 226° |
| 2026-05-05 18:13 | 42.47859 | -71.12783 | 1709 ft | 134 kts | 219° |
| 2026-05-05 18:14 | 42.47386 | -71.13863 | 1472 ft | 141 kts | 249° |
| 2026-05-05 18:14 | 42.47179 | -71.15082 | 1359 ft | 125 kts | 250° |
| 2026-05-05 18:14 | 42.46947 | -71.16252 | 1459 ft | 130 kts | 250° |
| 2026-05-05 18:14 | 42.46747 | -71.17436 | 1388 ft | 125 kts | 252° |
| 2026-05-05 18:15 | 42.46569 | -71.18613 | 1430 ft | 127 kts | 258° |
| 2026-05-05 18:15 | 42.46605 | -71.19823 | 1504 ft | 138 kts | 268° |
| 2026-05-05 18:15 | 42.46653 | -71.21144 | 1260 ft | 138 kts | 266° |
| 2026-05-05 18:15 | 42.46669 | -71.22432 | 941 ft | 138 kts | 263° |
| 2026-05-05 18:16 | 42.46651 | -71.23714 | 689 ft | 137 kts | 265° |
| 2026-05-05 18:16 | 42.46721 | -71.24989 | 490 ft | 133 kts | 270° |
| 2026-05-05 18:16 | 42.46837 | -71.26223 | 281 ft | 132 kts | 270° |
| 2026-05-05 18:16 | 42.46952 | -71.27506 | 173 ft | 141 kts | 273° |
| 2026-05-05 18:17 | 42.47066 | -71.28739 | 139 ft | 109 kts | 271° |
| 2026-05-05 18:17 | 42.47123 | -71.29452 | 139 ft | 57 kts | 277° |
| 2026-05-05 18:17 | 42.47162 | -71.29883 | 140 ft | 24 kts | 284° |
| 2026-05-05 18:17 | 42.47089 | -71.30021 | 144 ft | 20 kts | 187° |
| 2026-05-05 18:18 | 42.46969 | -71.30018 | 146 ft | 13 kts | 129° |
| 2026-05-05 18:18 | 42.46949 | -71.29876 | 141 ft | 17 kts | 97° |
| 2026-05-05 18:18 | 42.46934 | -71.29700 | 139 ft | 19 kts | 96° |
| 2026-05-05 18:18 | 42.46915 | -71.29514 | 139 ft | 20 kts | 98° |
| 2026-05-05 18:19 | 42.46896 | -71.29321 | 139 ft | 20 kts | 97° |
| 2026-05-05 18:19 | 42.46877 | -71.29123 | 139 ft | 21 kts | 97° |
| 2026-05-05 18:19 | 42.46859 | -71.28914 | 139 ft | 22 kts | 97° |
| 2026-05-05 18:19 | 42.46837 | -71.28692 | 136 ft | 25 kts | 95° |
| 2026-05-05 18:20 | 42.46782 | -71.28539 | 136 ft | 15 kts | 179° |
| 2026-05-05 18:20 | 42.46710 | -71.28524 | 135 ft | 16 kts | 163° |
| 2026-05-05 18:20 | 42.46571 | -71.28431 | 136 ft | 16 kts | 122° |
| 2026-05-05 18:20 | 42.46617 | -71.28320 | 135 ft | 13 kts | 9° |
| 2026-05-05 18:21 | 42.46633 | -71.28318 | 136 ft | 0 kts | 1° |